createdAt,value
2019-03-26T00:00:32.417Z,62.56
2019-03-26T00:01:42.351Z,62.28
2019-03-26T00:02:52.272Z,63.42
2019-03-26T00:04:08.426Z,63.23
2019-03-26T00:05:18.403Z,63.13
2019-03-26T00:06:28.328Z,63.23
2019-03-26T00:07:38.245Z,63.13
2019-03-26T00:08:48.167Z,62.56
2019-03-26T00:09:58.097Z,63.13
2019-03-26T00:11:08.107Z,63.23
2019-03-26T00:12:18.022Z,63.89
2019-03-26T00:13:27.940Z,63.51
2019-03-26T00:14:37.603Z,63.6
2019-03-26T00:15:47.529Z,63.42
2019-03-26T00:16:57.562Z,63.7
2019-03-26T00:18:07.494Z,63.23
2019-03-26T00:19:17.418Z,63.42
2019-03-26T00:20:27.343Z,63.6
2019-03-26T00:21:37.268Z,63.67
2019-03-26T00:22:47.282Z,63.7
2019-03-26T00:23:57.274Z,63.42
2019-03-26T00:25:07.204Z,63.39
2019-03-26T00:26:17.122Z,63.29
2019-03-26T00:27:27.042Z,63.51
2019-03-26T00:28:37.068Z,63.67
2019-03-26T00:29:46.995Z,63.67
2019-03-26T00:30:56.918Z,64.14
2019-03-26T00:32:06.833Z,64.14
2019-03-26T00:33:16.752Z,64.04
2019-03-26T00:34:39.292Z,64.14
2019-03-26T00:35:49.303Z,64.42
2019-03-26T00:36:59.246Z,63.95
2019-03-26T00:38:09.178Z,64.42
2019-03-26T00:39:18.851Z,64.52
2019-03-26T00:40:28.841Z,64.14
2019-03-26T00:41:38.760Z,63.57
2019-03-26T00:42:48.693Z,63.29
2019-03-26T00:43:58.614Z,63.57
2019-03-26T00:45:08.531Z,63.39
2019-03-26T00:46:18.552Z,63.67
2019-03-26T00:47:28.475Z,63.39
2019-03-26T00:48:38.400Z,63.48
2019-03-26T00:49:48.318Z,63.01
2019-03-26T00:50:58.244Z,63.01
2019-03-26T00:52:08.209Z,63.67
2019-03-26T00:53:17.876Z,63.67
2019-03-26T00:54:27.805Z,63.1
2019-03-26T00:55:37.728Z,63.57
2019-03-26T00:56:47.655Z,63.57
2019-03-26T00:57:57.674Z,63.48
2019-03-26T00:59:09.275Z,63.1
2019-03-26T01:00:19.212Z,63.67
2019-03-26T01:01:29.141Z,63.1
2019-03-26T01:02:39.058Z,63.29
2019-03-26T01:03:48.986Z,63.29
2019-03-26T01:05:00.413Z,63.2
2019-03-26T01:06:10.349Z,63.1
2019-03-26T01:07:20.282Z,63.29
2019-03-26T01:08:30.198Z,63.48
2019-03-26T01:09:39.979Z,63.48
2019-03-26T01:10:49.898Z,64.33
2019-03-26T01:11:59.829Z,64.23
2019-03-26T01:13:09.773Z,64.52
2019-03-26T01:14:19.444Z,64.52
2019-03-26T01:15:29.515Z,64.52
2019-03-26T01:16:39.436Z,64.52
2019-03-26T01:17:49.353Z,63.67
2019-03-26T01:18:59.273Z,63.29
2019-03-26T01:20:08.940Z,62.82
2019-03-26T01:21:18.955Z,63.39
2019-03-26T01:22:28.875Z,63.2
2019-03-26T01:23:38.788Z,62.15
2019-03-26T01:24:48.708Z,61.96
2019-03-26T01:25:58.625Z,61.3
2019-03-26T01:27:08.661Z,61.21
2019-03-26T01:28:18.578Z,61.21
2019-03-26T01:29:28.506Z,61.33
2019-03-26T01:30:38.427Z,61.02
2019-03-26T01:31:48.344Z,60.64
2019-03-26T01:32:58.308Z,61.15
2019-03-26T01:34:07.972Z,61.33
2019-03-26T01:35:17.890Z,61.15
2019-03-26T01:36:27.816Z,61.3
2019-03-26T01:37:37.739Z,61.77
2019-03-26T01:38:47.580Z,62.66
2019-03-26T01:39:57.498Z,62.06
2019-03-26T01:41:07.416Z,60.93
2019-03-26T01:42:17.331Z,61.11
2019-03-26T01:43:27.246Z,61.21
2019-03-26T01:44:37.260Z,61.58
2019-03-26T01:45:47.173Z,61.87
2019-03-26T01:46:57.088Z,61.58
2019-03-26T01:48:07.006Z,62.15
2019-03-26T01:49:16.928Z,62.06
2019-03-26T01:50:26.892Z,62.34
2019-03-26T01:51:36.807Z,62.15
2019-03-26T01:52:46.733Z,61.4
2019-03-26T01:53:56.657Z,61.21
2019-03-26T01:55:06.628Z,61.4
2019-03-26T01:56:16.648Z,60.93
2019-03-26T01:57:26.564Z,60.07
2019-03-26T01:58:36.497Z,60.17
2019-03-26T01:59:46.165Z,59.69
2019-03-26T02:00:56.084Z,59.98
2019-03-26T02:02:06.115Z,59.98
2019-03-26T02:03:16.040Z,60.17
2019-03-26T02:04:25.960Z,60.45
2019-03-26T02:05:35.887Z,60.74
2019-03-26T02:06:45.808Z,61.3
2019-03-26T02:07:55.823Z,61.3
2019-03-26T02:09:05.751Z,60.36
2019-03-26T02:10:15.680Z,60.36
2019-03-26T02:11:25.598Z,60.07
2019-03-26T02:12:35.521Z,59.6
2019-03-26T02:13:45.438Z,59.5
2019-03-26T02:14:55.359Z,59.31
2019-03-26T02:16:05.603Z,59.22
2019-03-26T02:17:15.523Z,59.12
2019-03-26T02:18:25.443Z,59.6
2019-03-26T02:19:35.465Z,60.55
2019-03-26T02:20:45.381Z,61.58
2019-03-26T02:21:55.295Z,61.49
2019-03-26T02:23:05.220Z,62.15
2019-03-26T02:24:15.145Z,62.53
2019-03-26T02:25:25.176Z,61.96
2019-03-26T02:26:35.163Z,61.02
2019-03-26T02:27:45.079Z,61.02
2019-03-26T02:28:55.000Z,61.11
2019-03-26T02:30:05.029Z,61.11
2019-03-26T02:31:15.106Z,61.3
2019-03-26T02:32:25.041Z,60.83
2019-03-26T02:33:34.979Z,59.88
2019-03-26T02:34:44.917Z,59.22
2019-03-26T02:35:54.988Z,59.12
2019-03-26T02:37:04.930Z,58.65
2019-03-26T02:38:14.885Z,57.9
2019-03-26T02:39:24.826Z,57.99
2019-03-26T02:40:34.757Z,57.61
2019-03-26T02:41:44.691Z,58.09
2019-03-26T02:42:54.741Z,57.8
2019-03-26T02:44:04.685Z,57.99
2019-03-26T02:45:14.612Z,58.09
2019-03-26T02:46:24.549Z,57.14
2019-03-26T02:47:34.623Z,57.14
2019-03-26T02:48:44.661Z,57.04
2019-03-26T02:49:54.599Z,56.57
2019-03-26T02:51:04.574Z,56.57
2019-03-26T02:52:14.522Z,56.76
2019-03-26T02:53:24.462Z,56.76
2019-03-26T02:54:34.317Z,57.23
2019-03-26T02:55:44.264Z,57.52
2019-03-26T02:56:53.700Z,57.42
2019-03-26T02:58:03.641Z,57.52
2019-03-26T02:59:13.583Z,57.9
2019-03-26T03:00:23.610Z,58.18
2019-03-26T03:01:33.551Z,58.47
2019-03-26T03:02:43.480Z,58.75
2019-03-26T03:03:53.406Z,58.47
2019-03-26T03:05:03.352Z,58.75
2019-03-26T03:06:13.288Z,59.12
2019-03-26T03:07:23.236Z,59.41
2019-03-26T03:08:33.189Z,59.69
2019-03-26T03:09:43.193Z,59.88
2019-03-26T03:10:53.122Z,58.94
2019-03-26T03:12:03.161Z,58.84
2019-03-26T03:13:13.099Z,58.65
2019-03-26T03:14:23.031Z,58.47
2019-03-26T03:15:32.975Z,58.65
2019-03-26T03:16:43.022Z,58.75
2019-03-26T03:17:53.164Z,57.9
2019-03-26T03:19:03.104Z,57.61
2019-03-26T03:20:12.795Z,58.47
2019-03-26T03:21:22.757Z,59.5
2019-03-26T03:22:32.704Z,58.94
2019-03-26T03:23:42.388Z,58.47
2019-03-26T03:24:52.313Z,58.65
2019-03-26T03:26:02.254Z,58.18
2019-03-26T03:27:12.209Z,58.56
2019-03-26T03:28:22.233Z,58.84
2019-03-26T03:29:32.041Z,58.56
2019-03-26T03:30:42.008Z,58.75
2019-03-26T03:31:51.995Z,58.65
2019-03-26T03:33:01.976Z,58.18
2019-03-26T03:34:11.984Z,58.53
2019-03-26T03:35:22.080Z,58.91
2019-03-26T03:36:32.014Z,58.53
2019-03-26T03:37:41.942Z,58.72
2019-03-26T03:38:51.869Z,59.95
2019-03-26T03:40:01.855Z,59.66
2019-03-26T03:41:11.922Z,59.76
2019-03-26T03:42:21.865Z,59.57
2019-03-26T03:43:31.816Z,59.95
2019-03-26T03:44:41.766Z,60.04
2019-03-26T03:45:51.748Z,60.8
2019-03-26T03:47:01.918Z,61.27
2019-03-26T03:48:11.864Z,60.61
2019-03-26T03:49:21.819Z,60.04
2019-03-26T03:50:31.773Z,60.23
2019-03-26T03:51:41.723Z,60.04
2019-03-26T03:52:51.900Z,60.23
2019-03-26T03:54:01.607Z,59.66
2019-03-26T03:55:11.562Z,58.81
2019-03-26T03:56:21.258Z,58.62
2019-03-26T03:57:31.186Z,58.72
2019-03-26T03:58:41.307Z,57.87
2019-03-26T03:59:51.233Z,57.87
2019-03-26T04:01:01.171Z,57.61
2019-03-26T04:02:11.319Z,57.23
2019-03-26T04:03:21.252Z,57.14
2019-03-26T04:04:31.182Z,56.85
2019-03-26T04:05:41.110Z,57.14
2019-03-26T04:06:51.132Z,57.52
2019-03-26T04:08:01.076Z,58.09
2019-03-26T04:09:11.019Z,57.61
2019-03-26T04:10:21.009Z,57.8
2019-03-26T04:11:30.944Z,57.42
2019-03-26T04:12:40.899Z,57.52
2019-03-26T04:13:50.834Z,57.9
2019-03-26T04:15:00.761Z,57.99
2019-03-26T04:16:10.845Z,58.09
2019-03-26T04:17:20.826Z,58.56
2019-03-26T04:18:30.758Z,58.47
2019-03-26T04:19:40.425Z,58.94
2019-03-26T04:20:50.357Z,58.94
2019-03-26T04:22:00.284Z,59.79
2019-03-26T04:23:10.240Z,60.07
2019-03-26T04:24:20.207Z,60.36
2019-03-26T04:25:30.171Z,60.17
2019-03-26T04:26:40.187Z,61.02
2019-03-26T04:27:50.261Z,61.11
2019-03-26T04:29:00.295Z,61.58
2019-03-26T04:30:10.242Z,61.77
2019-03-26T04:31:20.197Z,61.36
2019-03-26T04:32:30.134Z,61.65
2019-03-26T04:33:40.192Z,60.83
2019-03-26T04:34:50.148Z,60.83
2019-03-26T04:36:00.090Z,61.3
2019-03-26T04:37:10.010Z,61.21
2019-03-26T04:38:19.930Z,61.21
2019-03-26T04:39:29.613Z,61.3
2019-03-26T04:40:39.547Z,61.3
2019-03-26T04:41:49.491Z,60.74
2019-03-26T04:42:59.415Z,60.36
2019-03-26T04:44:09.371Z,60.93
2019-03-26T04:45:19.502Z,60.93
2019-03-26T04:46:29.418Z,61.3
2019-03-26T04:47:39.350Z,61.11
2019-03-26T04:48:49.264Z,61.21
2019-03-26T04:49:59.177Z,61.02
2019-03-26T04:51:09.089Z,61.02
2019-03-26T04:52:18.751Z,60.64
2019-03-26T04:53:28.665Z,61.3
2019-03-26T04:54:41.806Z,60.83
2019-03-26T04:55:51.730Z,61.11
2019-03-26T04:57:01.747Z,60.55
2019-03-26T04:58:11.671Z,60.45
2019-03-26T04:59:21.666Z,60.17
2019-03-26T05:00:31.581Z,59.6
2019-03-26T05:01:41.533Z,59.5
2019-03-26T05:02:51.574Z,58.84
2019-03-26T05:04:01.249Z,58.65
2019-03-26T05:05:14.567Z,58.09
2019-03-26T05:06:37.107Z,58.18
2019-03-26T05:07:47.344Z,58.65
2019-03-26T05:08:57.380Z,58.56
2019-03-26T05:10:07.295Z,58.84
2019-03-26T05:11:16.965Z,59.12
2019-03-26T05:12:26.881Z,58.75
2019-03-26T05:13:36.840Z,58.75
2019-03-26T05:14:46.762Z,59.12
2019-03-26T05:15:56.691Z,59.6
2019-03-26T05:17:06.625Z,59.41
2019-03-26T05:18:16.562Z,59.5
2019-03-26T05:19:26.532Z,60.26
2019-03-26T05:20:36.462Z,61.3
2019-03-26T05:21:46.379Z,61.08
2019-03-26T05:22:56.376Z,60.7
2019-03-26T05:24:06.335Z,61.27
2019-03-26T05:25:16.254Z,60.93
2019-03-26T05:26:26.175Z,60.07
2019-03-26T05:27:47.846Z,61.02
2019-03-26T05:28:57.759Z,61.02
2019-03-26T05:30:07.693Z,60.83
2019-03-26T05:31:17.722Z,60.93
2019-03-26T05:32:27.639Z,61.02
2019-03-26T05:33:37.559Z,60.93
2019-03-26T05:34:47.484Z,60.93
2019-03-26T05:35:57.501Z,61.3
2019-03-26T05:37:07.437Z,60.93
2019-03-26T05:38:17.371Z,60.83
2019-03-26T05:39:27.297Z,61.3
2019-03-26T05:40:37.210Z,61.4
2019-03-26T05:41:47.135Z,61.3
2019-03-26T05:42:57.077Z,61.4
2019-03-26T05:44:06.745Z,61.4
2019-03-26T05:45:16.674Z,61.4
2019-03-26T05:46:26.597Z,61.68
2019-03-26T05:47:36.535Z,61.58
2019-03-26T05:48:46.457Z,61.58
2019-03-26T05:49:56.391Z,61.68
2019-03-26T05:51:06.309Z,61.3
2019-03-26T05:52:16.222Z,61.21
2019-03-26T05:53:26.193Z,61.3
2019-03-26T05:54:36.115Z,61.11
2019-03-26T05:55:46.039Z,61.11
2019-03-26T05:56:55.963Z,60.45
2019-03-26T05:58:05.901Z,60.64
2019-03-26T05:59:15.921Z,60.26
2019-03-26T06:00:25.835Z,60.17
2019-03-26T06:01:35.754Z,60.07
2019-03-26T06:02:45.673Z,60.17
2019-03-26T06:03:55.589Z,60.17
2019-03-26T06:05:05.609Z,60.26
2019-03-26T06:06:15.528Z,60.07
2019-03-26T06:07:25.194Z,60.17
2019-03-26T06:08:36.647Z,59.41
2019-03-26T06:09:46.564Z,60.07
2019-03-26T06:10:56.590Z,59.98
2019-03-26T06:12:06.589Z,60.26
2019-03-26T06:13:16.514Z,61.21
2019-03-26T06:14:26.440Z,60.45
2019-03-26T06:15:36.402Z,60.17
2019-03-26T06:16:46.332Z,60.26
2019-03-26T06:17:57.598Z,59.88
2019-03-26T06:19:07.661Z,59.69
2019-03-26T06:20:17.579Z,60.45
2019-03-26T06:21:27.288Z,60.93
2019-03-26T06:22:37.340Z,61.21
2019-03-26T06:23:47.268Z,61.02
2019-03-26T06:24:58.964Z,61.02
2019-03-26T06:26:08.906Z,61.02
2019-03-26T06:27:18.829Z,61.05
2019-03-26T06:28:28.848Z,59.81
2019-03-26T06:29:38.528Z,58.4
2019-03-26T06:30:48.542Z,59.25
2019-03-26T06:31:58.462Z,59.53
2019-03-26T06:33:08.391Z,59.25
2019-03-26T06:34:18.425Z,58.65
2019-03-26T06:35:28.118Z,58.02
2019-03-26T06:36:38.038Z,58.02
2019-03-26T06:37:47.964Z,58.59
2019-03-26T06:38:57.887Z,58.68
2019-03-26T06:40:07.903Z,58.02
2019-03-26T06:41:17.569Z,57.92
2019-03-26T06:42:27.496Z,57.35
2019-03-26T06:43:37.418Z,57.17
2019-03-26T06:44:47.344Z,57.35
2019-03-26T06:45:57.312Z,57.35
2019-03-26T06:47:07.238Z,57.45
2019-03-26T06:48:17.195Z,57.83
2019-03-26T06:49:27.117Z,58.68
2019-03-26T06:50:37.041Z,59.06
2019-03-26T06:51:46.962Z,58.78
2019-03-26T06:52:56.879Z,59.63
2019-03-26T06:54:06.800Z,58.78
2019-03-26T06:55:16.722Z,58.59
2019-03-26T06:56:26.642Z,58.68
2019-03-26T06:57:38.397Z,59.53
2019-03-26T06:58:48.331Z,59.91
2019-03-26T06:59:58.247Z,59.91
2019-03-26T07:01:10.054Z,59.53
2019-03-26T07:02:19.720Z,60.1
2019-03-26T07:03:29.745Z,60.1
2019-03-26T07:04:39.671Z,60.48
2019-03-26T07:05:49.590Z,61.33
2019-03-26T07:07:00.371Z,60.1
2019-03-26T07:08:10.424Z,59.81
2019-03-26T07:09:20.457Z,59.25
2019-03-26T07:10:30.142Z,59.53
2019-03-26T07:11:39.814Z,58.78
2019-03-26T07:12:49.737Z,58.49
2019-03-26T07:13:59.444Z,58.78
2019-03-26T07:15:09.228Z,58.87
2019-03-26T07:16:19.144Z,59.91
2019-03-26T07:17:29.782Z,60.19
2019-03-26T07:18:39.712Z,60.1
2019-03-26T07:19:49.632Z,60.1
2019-03-26T07:20:59.626Z,59.53
2019-03-26T07:22:09.544Z,59.44
2019-03-26T07:23:19.211Z,60
2019-03-26T07:24:29.143Z,60.96
2019-03-26T07:25:39.062Z,60.86
2019-03-26T07:26:48.983Z,61.43
2019-03-26T07:27:58.941Z,61.52
2019-03-26T07:29:08.859Z,61.05
2019-03-26T07:30:18.786Z,60.86
2019-03-26T07:31:28.707Z,60.1
2019-03-26T07:32:38.676Z,60.29
2019-03-26T07:33:48.609Z,60.1
2019-03-26T07:34:58.278Z,60.03
2019-03-26T07:36:08.298Z,60.13
2019-03-26T07:37:17.974Z,61.55
2019-03-26T07:38:28.005Z,62.59
2019-03-26T07:39:39.132Z,61.74
2019-03-26T07:40:49.111Z,60.89
2019-03-26T07:41:59.039Z,61.36
2019-03-26T07:43:08.973Z,61.46
2019-03-26T07:44:18.994Z,60.51
2019-03-26T07:45:28.921Z,60.7
2019-03-26T07:46:38.846Z,58.24
2019-03-26T07:47:48.787Z,58.24
2019-03-26T07:48:58.456Z,58.33
2019-03-26T07:50:08.381Z,58.24
2019-03-26T07:51:21.643Z,58.52
2019-03-26T07:52:31.645Z,60.32
2019-03-26T07:53:41.583Z,61.18
2019-03-26T07:54:51.502Z,61.27
2019-03-26T07:56:01.489Z,60.03
2019-03-26T07:57:11.416Z,61.18
2019-03-26T07:58:21.338Z,61.36
2019-03-26T07:59:31.261Z,61.36
2019-03-26T08:00:41.289Z,62.4
2019-03-26T08:01:51.219Z,62.21
2019-03-26T08:03:01.140Z,61.46
2019-03-26T08:04:12.521Z,60.7
2019-03-26T08:05:31.910Z,60.35
2019-03-26T08:06:41.831Z,59.31
2019-03-26T08:08:00.868Z,60.51
2019-03-26T08:09:10.728Z,61.11
2019-03-26T08:10:20.796Z,59.88
2019-03-26T08:11:30.773Z,60.06
2019-03-26T08:12:40.714Z,58.74
2019-03-26T08:13:50.815Z,58.81
2019-03-26T08:15:00.802Z,58.26
2019-03-26T08:16:10.532Z,57.32
2019-03-26T08:17:20.556Z,55.87
2019-03-26T08:18:30.632Z,56.63
2019-03-26T08:19:40.583Z,58.24
2019-03-26T08:20:50.514Z,58.17
2019-03-26T08:22:02.745Z,58.26
2019-03-26T08:23:12.684Z,56.66
2019-03-26T08:24:22.613Z,56.37
2019-03-26T08:25:33.919Z,55.52
2019-03-26T08:26:44.060Z,55.8
2019-03-26T08:27:57.236Z,57.32
2019-03-26T08:29:10.255Z,57.42
2019-03-26T08:30:20.174Z,57.98
2019-03-26T08:31:30.199Z,57.95
2019-03-26T08:32:40.124Z,57.6
2019-03-26T08:33:50.044Z,58.07
2019-03-26T08:34:59.970Z,57.79
2019-03-26T08:36:09.898Z,58.36
2019-03-26T08:37:19.987Z,58.07
2019-03-26T08:38:29.908Z,58.07
2019-03-26T08:39:41.227Z,58.26
2019-03-26T08:40:51.160Z,58.26
2019-03-26T08:42:01.088Z,57.42
2019-03-26T08:43:11.042Z,57.51
2019-03-26T08:44:20.966Z,57.98
2019-03-26T08:45:30.900Z,57.7
2019-03-26T08:46:40.829Z,58.17
2019-03-26T08:47:53.900Z,57.89
2019-03-26T08:49:03.905Z,57.13
2019-03-26T08:50:17.017Z,57.42
2019-03-26T08:51:26.705Z,57.23
2019-03-26T08:52:36.633Z,57.98
2019-03-26T08:53:46.557Z,58.07
2019-03-26T08:54:56.476Z,58.07
2019-03-26T08:56:09.625Z,58.93
2019-03-26T08:57:19.634Z,58.07
2019-03-26T08:58:29.365Z,58.74
2019-03-26T08:59:39.289Z,60.16
2019-03-26T09:00:49.284Z,58.84
2019-03-26T09:01:59.215Z,57.98
2019-03-26T09:03:09.143Z,57.79
2019-03-26T09:04:18.930Z,58.26
2019-03-26T09:05:32.143Z,57.51
2019-03-26T09:06:41.911Z,57.89
2019-03-26T09:07:51.846Z,57.98
2019-03-26T09:09:01.771Z,57.23
2019-03-26T09:10:11.765Z,57.13
2019-03-26T09:11:21.692Z,57.7
2019-03-26T09:12:31.779Z,57.23
2019-03-26T09:13:44.803Z,57.04
2019-03-26T09:14:54.728Z,57.32
2019-03-26T09:16:04.657Z,57.42
2019-03-26T09:17:14.592Z,57.42
2019-03-26T09:18:27.389Z,58.17
2019-03-26T09:19:37.406Z,58.17
2019-03-26T09:20:47.334Z,57.6
2019-03-26T09:21:57.257Z,55.36
2019-03-26T09:23:07.248Z,55.64
2019-03-26T09:24:20.005Z,55.55
2019-03-26T09:25:29.935Z,56.02
2019-03-26T09:26:39.861Z,54.69
2019-03-26T09:27:52.301Z,53.84
2019-03-26T09:29:02.166Z,53.94
2019-03-26T09:30:12.094Z,54.03
2019-03-26T09:31:22.019Z,53.18
2019-03-26T09:32:31.961Z,53.2
2019-03-26T09:33:41.892Z,52.16
2019-03-26T09:34:51.813Z,51.31
2019-03-26T09:36:01.738Z,51.68
2019-03-26T09:37:11.664Z,53.3
2019-03-26T09:38:21.359Z,52.54
2019-03-26T09:39:44.001Z,51.97
2019-03-26T09:40:53.986Z,51.31
2019-03-26T09:42:04.011Z,50.57
2019-03-26T09:43:13.946Z,50.2
2019-03-26T09:44:23.869Z,49.63
2019-03-26T09:45:33.793Z,50.29
2019-03-26T09:46:43.819Z,50.57
2019-03-26T09:47:53.742Z,50.57
2019-03-26T09:49:03.674Z,49.15
2019-03-26T09:50:13.599Z,48.01
2019-03-26T09:51:23.519Z,47.53
2019-03-26T09:52:33.446Z,48.58
2019-03-26T09:53:43.373Z,47.92
2019-03-26T09:54:53.301Z,47.82
2019-03-26T09:56:03.233Z,47.92
2019-03-26T09:57:13.172Z,48.58
2019-03-26T09:58:23.239Z,48.11
2019-03-26T09:59:33.163Z,49.05
2019-03-26T10:00:43.324Z,49.05
2019-03-26T10:01:54.212Z,48.96
2019-03-26T10:03:04.141Z,49.05
2019-03-26T10:04:14.101Z,48.68
2019-03-26T10:05:24.026Z,47.44
2019-03-26T10:06:33.952Z,47.66
2019-03-26T10:07:44.017Z,47.37
2019-03-26T10:08:55.356Z,47.18
2019-03-26T10:10:05.379Z,47.47
2019-03-26T10:11:15.302Z,48.51
2019-03-26T10:12:25.230Z,47.56
2019-03-26T10:13:36.407Z,46.23
2019-03-26T10:14:46.500Z,46.51
2019-03-26T10:15:56.479Z,46.99
2019-03-26T10:17:06.434Z,45.95
2019-03-26T10:18:16.379Z,45.57
2019-03-26T10:19:26.332Z,46.51
2019-03-26T10:20:36.269Z,45.76
2019-03-26T10:21:46.197Z,45.19
2019-03-26T10:22:56.121Z,44.81
2019-03-26T10:24:06.063Z,45.95
2019-03-26T10:25:15.987Z,45.19
2019-03-26T10:26:25.914Z,45.28
2019-03-26T10:27:37.603Z,45.19
2019-03-26T10:28:47.554Z,44.81
2019-03-26T10:29:57.481Z,44.81
2019-03-26T10:31:08.773Z,45.09
2019-03-26T10:32:18.446Z,45.95
2019-03-26T10:33:28.422Z,45.38
2019-03-26T10:34:39.124Z,46.7
2019-03-26T10:35:49.056Z,46.04
2019-03-26T10:36:58.984Z,44.64
2019-03-26T10:38:08.916Z,45
2019-03-26T10:39:18.948Z,45
2019-03-26T10:40:28.874Z,44.9
2019-03-26T10:41:38.818Z,44.81
2019-03-26T10:42:48.759Z,45
2019-03-26T10:43:58.688Z,45.19
2019-03-26T10:45:08.797Z,46.33
2019-03-26T10:46:18.743Z,46.59
2019-03-26T10:47:28.673Z,49.24
2019-03-26T10:48:38.610Z,49.53
2019-03-26T10:49:48.540Z,50.2
2019-03-26T10:50:58.514Z,50.76
2019-03-26T10:52:08.452Z,49.82
2019-03-26T10:53:18.383Z,50.57
2019-03-26T10:54:28.127Z,49.43
2019-03-26T10:55:38.061Z,48.89
2019-03-26T10:56:47.991Z,48.61
2019-03-26T10:57:57.919Z,47.85
2019-03-26T10:59:07.851Z,47.94
2019-03-26T11:00:17.772Z,47.66
2019-03-26T11:01:27.704Z,46.8
2019-03-26T11:02:37.641Z,46.04
2019-03-26T11:03:47.570Z,46.21
2019-03-26T11:04:57.497Z,46.69
2019-03-26T11:06:07.428Z,46.88
2019-03-26T11:07:17.387Z,48.2
2019-03-26T11:08:27.358Z,48.32
2019-03-26T11:09:37.314Z,47.56
2019-03-26T11:10:47.253Z,46.33
2019-03-26T11:11:57.179Z,46.8
2019-03-26T11:13:07.104Z,47.66
2019-03-26T11:14:17.031Z,47.47
2019-03-26T11:15:26.952Z,47.47
2019-03-26T11:16:36.883Z,48.61
2019-03-26T11:17:46.808Z,48.51
2019-03-26T11:18:56.742Z,48.13
2019-03-26T11:20:06.672Z,46.64
2019-03-26T11:21:16.622Z,46.73
2019-03-26T11:22:26.571Z,43.98
2019-03-26T11:23:36.258Z,42.93
2019-03-26T11:24:46.189Z,43.41
2019-03-26T11:25:56.169Z,46.14
2019-03-26T11:27:06.187Z,47.11
2019-03-26T11:28:16.133Z,44.83
2019-03-26T11:29:26.061Z,45.21
2019-03-26T11:30:35.987Z,46.16
2019-03-26T11:31:45.702Z,46.45
2019-03-26T11:32:55.633Z,47.99
2019-03-26T11:34:05.570Z,45.52
2019-03-26T11:35:15.496Z,43.43
2019-03-26T11:36:25.428Z,42.76
2019-03-26T11:37:34.860Z,42.47
2019-03-26T11:38:44.790Z,43.14
2019-03-26T11:39:54.805Z,43.83
2019-03-26T11:41:04.797Z,44.87
2019-03-26T11:42:14.722Z,44.87
2019-03-26T11:43:24.711Z,42.52
2019-03-26T11:44:34.646Z,42.12
2019-03-26T11:45:44.593Z,40.33
2019-03-26T11:46:54.526Z,40.03
2019-03-26T11:48:04.548Z,42.31
2019-03-26T11:49:14.478Z,41.28
2019-03-26T11:50:24.408Z,41.28
2019-03-26T11:51:34.336Z,40.12
2019-03-26T11:52:44.264Z,40.12
2019-03-26T11:53:54.194Z,40.41
2019-03-26T11:55:04.128Z,40.5
2019-03-26T11:56:14.066Z,40.41
2019-03-26T11:57:23.758Z,41.26
2019-03-26T11:58:33.687Z,41.46
2019-03-26T11:59:43.619Z,41.93
2019-03-26T12:00:53.619Z,40.5
2019-03-26T12:02:03.559Z,41.07
2019-03-26T12:03:13.557Z,40.43
2019-03-26T12:04:23.488Z,41.28
2019-03-26T12:05:33.462Z,40.14
2019-03-26T12:06:43.481Z,38.54
2019-03-26T12:07:53.411Z,38.17
2019-03-26T12:09:03.360Z,37.69
2019-03-26T12:10:13.298Z,38.26
2019-03-26T12:11:23.229Z,39.02
2019-03-26T12:12:33.261Z,38.73
2019-03-26T12:13:43.188Z,38.75
2019-03-26T12:14:53.132Z,37.13
2019-03-26T12:16:03.147Z,37.71
2019-03-26T12:17:14.858Z,38.95
2019-03-26T12:18:25.010Z,38.56
2019-03-26T12:19:34.953Z,38.29
2019-03-26T12:20:44.894Z,37.92
2019-03-26T12:21:54.821Z,37.15
2019-03-26T12:23:04.766Z,37.63
2019-03-26T12:24:14.474Z,37.54
2019-03-26T12:25:24.411Z,37.25
2019-03-26T12:26:34.168Z,36.01
2019-03-26T12:27:44.109Z,35.44
2019-03-26T12:28:54.072Z,35.61
2019-03-26T12:30:03.773Z,35.23
2019-03-26T12:31:13.709Z,35.42
2019-03-26T12:32:23.407Z,35.89
2019-03-26T12:33:33.336Z,36.37
2019-03-26T12:34:43.032Z,36.47
2019-03-26T12:35:53.037Z,37.34
2019-03-26T12:37:03.017Z,36.68
2019-03-26T12:38:12.954Z,36.39
2019-03-26T12:39:22.887Z,38.1
2019-03-26T12:40:32.821Z,40.11
2019-03-26T12:41:42.860Z,41.44
2019-03-26T12:42:52.809Z,43.25
2019-03-26T12:44:02.750Z,42.58
2019-03-26T12:45:12.787Z,41.92
2019-03-26T12:46:22.803Z,38.79
2019-03-26T12:47:32.744Z,36.98
2019-03-26T12:48:42.436Z,36.39
2019-03-26T12:49:52.379Z,35.06
2019-03-26T12:51:02.306Z,36.08
2019-03-26T12:52:12.242Z,37.23
2019-03-26T12:53:22.234Z,37.9
2019-03-26T12:54:32.173Z,40.18
2019-03-26T12:55:42.106Z,40.75
2019-03-26T12:56:52.049Z,39.53
2019-03-26T12:58:01.979Z,40.3
2019-03-26T12:59:11.668Z,40.68
2019-03-26T13:00:21.595Z,40.22
2019-03-26T13:01:31.616Z,39.08
2019-03-26T13:02:41.546Z,37.93
2019-03-26T13:03:51.508Z,39.39
2019-03-26T13:05:14.692Z,40.24
2019-03-26T13:06:26.167Z,40.44
2019-03-26T13:07:36.100Z,38.93
2019-03-26T13:08:46.032Z,38.26
2019-03-26T13:09:55.961Z,38.73
2019-03-26T13:11:19.701Z,38.47
2019-03-26T13:12:29.635Z,39.14
2019-03-26T13:13:39.562Z,39.42
2019-03-26T13:14:49.495Z,39.64
2019-03-26T13:16:02.318Z,40.3
2019-03-26T13:17:12.256Z,40.4
2019-03-26T13:18:22.200Z,39.25
2019-03-26T13:19:32.197Z,38.49
2019-03-26T13:20:42.210Z,38.78
2019-03-26T13:21:53.160Z,38.68
2019-03-26T13:23:03.094Z,39.15
2019-03-26T13:24:14.075Z,38.96
2019-03-26T13:25:24.013Z,38.2
2019-03-26T13:26:33.943Z,37.92
2019-03-26T13:27:43.925Z,40.23
2019-03-26T13:28:53.860Z,39.06
2019-03-26T13:30:03.811Z,38.58
2019-03-26T13:31:13.745Z,37.92
2019-03-26T13:32:23.683Z,38.01
2019-03-26T13:33:33.624Z,37.92
2019-03-26T13:34:43.557Z,37.44
2019-03-26T13:35:53.536Z,38.6
2019-03-26T13:37:03.473Z,37.36
2019-03-26T13:38:13.408Z,37.36
2019-03-26T13:39:23.347Z,36.98
2019-03-26T13:40:33.374Z,36.87
2019-03-26T13:41:43.050Z,35.82
2019-03-26T13:42:52.996Z,34
2019-03-26T13:44:02.933Z,34.36
2019-03-26T13:45:12.970Z,34.94
2019-03-26T13:46:22.915Z,32.55
2019-03-26T13:47:32.856Z,34.06
2019-03-26T13:48:42.788Z,31.95
2019-03-26T13:49:52.723Z,34.05
2019-03-26T13:51:02.682Z,33.64
2019-03-26T13:52:12.627Z,33.93
2019-03-26T13:53:22.557Z,36.1
2019-03-26T13:54:32.500Z,35.44
2019-03-26T13:55:42.441Z,34.87
2019-03-26T13:56:52.378Z,35.23
2019-03-26T13:58:02.307Z,35.52
2019-03-26T13:59:12.239Z,35.99
2019-03-26T14:00:22.179Z,36.74
2019-03-26T14:01:32.109Z,37.88
2019-03-26T14:02:42.089Z,37.88
2019-03-26T14:03:52.025Z,36.45
2019-03-26T14:05:01.967Z,37.76
2019-03-26T14:06:11.895Z,37
2019-03-26T14:07:21.576Z,37.65
2019-03-26T14:08:31.509Z,39.07
2019-03-26T14:09:41.438Z,40.29
2019-03-26T14:10:51.373Z,40.77
2019-03-26T14:12:01.310Z,41.62
2019-03-26T14:13:11.243Z,41.43
2019-03-26T14:14:21.287Z,43.21
2019-03-26T14:15:31.221Z,43.69
2019-03-26T14:16:41.151Z,44.07
2019-03-26T14:17:51.076Z,43.69
2019-03-26T14:19:01.000Z,43.21
2019-03-26T14:20:10.981Z,43.21
2019-03-26T14:21:20.924Z,42.91
2019-03-26T14:22:30.848Z,43.76
2019-03-26T14:23:40.774Z,44.81
2019-03-26T14:24:50.451Z,45.19
2019-03-26T14:26:00.377Z,45.66
2019-03-26T14:27:10.313Z,46.04
2019-03-26T14:28:20.245Z,46.14
2019-03-26T14:29:30.189Z,46.04
2019-03-26T14:30:40.142Z,45.28
2019-03-26T14:31:50.068Z,45.76
2019-03-26T14:32:59.996Z,46.23
2019-03-26T14:34:09.927Z,46.8
2019-03-26T14:35:19.599Z,47.28
2019-03-26T14:36:29.529Z,45.66
2019-03-26T14:37:53.108Z,46.49
2019-03-26T14:39:03.035Z,46.78
2019-03-26T14:40:12.709Z,46.78
2019-03-26T14:41:22.633Z,47.73
2019-03-26T14:42:32.556Z,47.92
2019-03-26T14:43:42.484Z,48.01
2019-03-26T14:44:52.694Z,49.05
2019-03-26T14:46:02.666Z,48.86
2019-03-26T14:47:12.355Z,48.58
2019-03-26T14:48:22.379Z,47.73
2019-03-26T14:49:32.308Z,48.2
2019-03-26T14:50:42.242Z,48.96
2019-03-26T14:51:52.165Z,49.24
2019-03-26T14:53:02.096Z,48.86
2019-03-26T14:54:11.824Z,48.49
2019-03-26T14:55:21.745Z,49.05
2019-03-26T14:56:31.668Z,49.72
2019-03-26T14:57:41.610Z,49.43
2019-03-26T14:58:51.549Z,49.82
2019-03-26T15:00:01.605Z,49.05
2019-03-26T15:01:11.551Z,49.43
2019-03-26T15:02:21.490Z,50.1
2019-03-26T15:03:31.421Z,50.38
2019-03-26T15:04:41.343Z,50.38
2019-03-26T15:05:51.263Z,50.2
2019-03-26T15:07:01.285Z,50.01
2019-03-26T15:08:11.212Z,51.52